Tuesday, November 13, 2018, 7:29 PM EST
Back to Local

KACY, Atlantic City International

Location: Absecon, NJ, United States Lat: 39.467
Local Time: 7:29 PM EST ( 0:29 GMT) Lon: -74.583
Time Zone: US/Eastern Elev: 75 ft

Show me the last for .
Show Decoded

2018-11-13 18:54 METAR KACY 132354Z 31013KT 10SM OVC065 08/04 A3008 RMK AO2 SLP184 T00830039
                 10117 20083 53034 =
2018-11-13 17:54 METAR KACY 132254Z 31016G25KT 10SM FEW022 SCT027 OVC070 09/05 A3003 RMK AO2
                 SLP168 T00940050 =
2018-11-13 17:47 METAR KACY 132247Z 31016G22KT 10SM SCT024 BKN029 OVC075 09/06 A3003 RMK AO2
                 T00940056 =
2018-11-13 16:54 METAR KACY 132154Z 31015G21KT 10SM FEW021 OVC075 10/07 A3000 RMK AO2 SLP159
                 T01000067 =
2018-11-13 15:54 METAR KACY 132054Z 30012G22KT 10SM FEW020 OVC085 11/08 A2998 RMK AO2 SLP150
                 T01110078 53026 =
2018-11-13 15:01 METAR KACY 132001Z 29013KT 10SM SCT015 11/09 A2992 RMK AO2 T01110089 =
2018-11-13 14:54 METAR KACY 131954Z 30015G22KT 10SM BKN015 11/09 A2992 RMK AO2 SLP132 T01110089 =
2018-11-13 14:47 METAR KACY 131947Z 30011G21KT 10SM BKN015 11/09 A2992 RMK AO2 T01110089 =
2018-11-13 14:39 METAR KACY 131939Z 30015G21KT 10SM OVC013 11/09 A2993 RMK AO2 T01110094 =
2018-11-13 14:32 METAR KACY 131932Z 30013G22KT 10SM OVC015 11/09 A2992 RMK AO2 T01110094 =
2018-11-13 13:54 METAR KACY 131854Z 30015G23KT 10SM BKN010 11/09 A2991 RMK AO2 SLP127 T01110094 =
2018-11-13 12:54 METAR KACY 131754Z 29013G19KT 10SM OVC006 11/11 A2990 RMK AO2 CIG 005V011 SLP124
                 60059 T01110106 10172 20106 51023 =
2018-11-13 11:54 METAR KACY 131654Z 29007KT 10SM OVC005 12/11 A2987 RMK AO2 SLP113 T01170111 =
2018-11-13 11:30 METAR KACY 131630Z 30011KT 9SM OVC005 12/11 A2987 RMK AO2 T01170111 =
2018-11-13 11:02 METAR KACY 131602Z 30012G24KT 1 1/4SM BR OVC003 11/11 A2987 RMK AO2 SFC VIS 1
                 1/2 T01060106 =
2018-11-13 10:54 METAR KACY 131554Z 30019KT 2SM BR OVC003 11/11 A2987 RMK AO2 SLP114 T01110106 =
2018-11-13 10:38 METAR KACY 131538Z 31018KT 2 1/2SM BR OVC003 12/12 A2986 RMK AO2 T01220122 =
2018-11-13 09:54 METAR KACY 131454Z 27011KT 10SM OVC006 16/15 A2983 RMK AO2 RAE28 CIG 004V010
                 SLP101 P0001 60059 T01560150 55005 =
2018-11-13 09:31 METAR KACY 131431Z 26011KT 10SM OVC006 16/16 A2983 RMK AO2 RAE28 P0001 T01610161
                 =
2018-11-13 08:54 METAR KACY 131354Z 23006KT 1 1/2SM -RA BR BKN006 OVC009 17/17 A2982 RMK AO2
                 SLP098 P0006 T01670167 =
2018-11-13 08:52 METAR KACY 131352Z 24007KT 1 1/2SM -RA BR OVC006 17/17 A2982 RMK AO2 P0005 =
2018-11-13 08:37 METAR KACY 131337Z 23007KT 2 1/2SM -RA BR BKN006 OVC009 17/16 A2982 RMK AO2
                 P0005 T01670161 =
2018-11-13 08:29 METAR KACY 131329Z 22004KT 1 3/4SM -RA BR OVC009 16/16 A2983 RMK AO2 P0005
                 T01610156 =
2018-11-13 08:09 METAR KACY 131309Z 26004KT 1 1/4SM RA BR BKN009 OVC016 16/16 A2984 RMK AO2 P0002
                 T01560156 =
2018-11-13 07:54 METAR KACY 131254Z 24003KT 1 1/4SM RA BR FEW006 BKN012 OVC017 16/16 A2985 RMK
                 AO2 SLP106 P0052 T01560156 =
2018-11-13 07:50 METAR KACY 131250Z 26003KT 1SM RA BR FEW006 BKN012 OVC017 16/16 A2985 RMK AO2
                 P0051 =
2018-11-13 07:40 METAR KACY 131240Z 26003KT 3/4SM +RA BR FEW007 BKN016 OVC020 16/16 A2985 RMK AO2
                 P0047 T01560156 =
2018-11-13 07:15 METAR KACY 131215Z 24004KT 1SM +RA BR FEW007 SCT011 OVC023 16/16 A2986 RMK AO2
                 P0028 T01610161 =
2018-11-13 07:02 METAR KACY 131202Z 24004KT 1 1/4SM +RA BR SCT007 OVC012 16/15 A2986 =
2018-11-13 06:54 METAR KACY 131154Z 30008KT 1 3/4SM +RA BR BKN005 BKN012 OVC017 16/16 A2986 RMK
                 AO2 SLP110 P0040 60082 70112 T01560156 10156 20089 56052 =
2018-11-13 06:32 METAR KACY 131132Z VRB03KT 1 3/4SM +RA BR OVC005 15/15 A2989 RMK AO2 P0016
                 T01500150 =
2018-11-13 06:18 METAR KACY 131118Z 00000KT 3SM -RA BR OVC005 16/15 A2988 =
2018-11-13 05:54 METAR KACY 131054Z 16004KT 1 3/4SM +RA BR OVC005 15/15 A2990 RMK AO2 SLP124
                 P0027 T01500150 =
2018-11-13 05:11 METAR KACY 131011Z 12009KT 2SM +RA BR BKN007 OVC010 15/14 A2992 RMK AO2 PRESFR
                 P0009 T01500144 =
2018-11-13 04:54 METAR KACY 130954Z 13011G18KT 5SM -RA BR BKN007 BKN012 OVC018 14/14 A2994 RMK
                 AO2 CIG 005V010 SLP139 P0004 T01440144 =
2018-11-13 04:42 METAR KACY 130942Z 12012G19KT 5SM -RA BR BKN007 BKN016 OVC026 14/14 A2994 =
2018-11-13 04:23 METAR KACY 130923Z 11010KT 4SM -RA BR SCT005 BKN025 OVC034 13/13 A2996 =
2018-11-13 03:54 METAR KACY 130854Z 12008KT 5SM -RA BR BKN004 BKN043 OVC055 13/13 A3001 RMK AO2
                 RAB00 SLP163 P0005 60011 T01280128 58058 =
2018-11-13 02:54 METAR KACY 130754Z 08004KT 3SM BR OVC002 11/11 A3008 RMK AO2 RAE37 SLP185 P0002
                 T01110111 =
2018-11-13 02:45 METAR KACY 130745Z 08004KT 3SM BR OVC003 11/11 A3009 =
2018-11-13 02:03 METAR KACY 130703Z 09004KT 2 1/2SM -RA BR OVC004 10/10 A3013 =
2018-11-13 01:54 METAR KACY 130654Z 10004KT 3SM -RA BR BKN004 OVC010 10/10 A3014 RMK AO2 SLP206
                 P0004 T01000100 =
2018-11-13 01:47 METAR KACY 130647Z 10005KT 3SM -RA BR BKN004 OVC010 10/09 A3014 =
2018-11-13 01:34 METAR KACY 130634Z 10004KT 2 1/2SM -RA BR SCT005 BKN011 OVC017 09/09 A3015 RMK
                 AO2 P0002 T00940094 =
2018-11-13 01:20 METAR KACY 130620Z 07003KT 2 1/2SM -RA BR FEW005 OVC017 09/09 A3017 RMK AO2
                 P0001 T00890089 =
2018-11-13 00:54 METAR KACY 130554Z 08003KT 4SM -RA BR BKN019 BKN024 OVC029 09/08 A3018 RMK AO2
                 SLP220 P0007 60030 T00890083 10089 20072 58028 =
2018-11-13 00:42 METAR KACY 130542Z 05003KT 3SM -RA BR BKN025 OVC034 09/08 A3019 =
2018-11-13 00:35 METAR KACY 130535Z 06003KT 2 1/2SM RA BR FEW022 BKN029 OVC044 09/09 A3019 RMK
                 AO2 P0006 T00890089 =
2018-11-13 00:21 METAR KACY 130521Z 00000KT 4SM -RA BR SCT023 BKN036 OVC070 09/09 A3021 =
2018-11-13 00:12 METAR KACY 130512Z 05003KT 3SM RA BR SCT025 BKN029 OVC070 08/08 A3020 =
2018-11-12 23:54 METAR KACY 130454Z 02003KT 3SM -RA BR FEW028 SCT036 OVC070 08/08 A3022 RMK AO2
                 SLP231 P0006 T00830083 401061039 =
2018-11-12 22:54 METAR KACY 130354Z 00000KT 4SM RA BR BKN030 OVC037 08/08 A3024 RMK AO2 SLP240
                 P0010 T00780078 =
2018-11-12 21:54 METAR KACY 130254Z AUTO 06004KT 6SM -RA BR FEW038 SCT065 OVC080 07/07 A3027 RMK
                 AO2 SLP250 P0003 60007 T00720067 58024 =
2018-11-12 20:54 METAR KACY 130154Z AUTO 04003KT 7SM -RA BKN050 OVC060 08/06 A3031 RMK AO2 RAB09
                 SLP265 P0004 T00780056 =

Support USWX by starting your Amazon purchase here.